sensor_id;sensor_type;location;lat;lon;timestamp;pressure;altitude;pressure_sealevel;temperature;humidity
75089;BME280;63673;49.928;8.150;2024-01-25T00:00:55;1002.35;;;6.92;100
75089;BME280;63673;49.928;8.150;2024-01-25T00:01:56;1002.32;;;6.9;100
75089;BME280;63673;49.928;8.150;2024-01-25T00:02:58;1002.34;;;6.88;100
75089;BME280;63673;49.928;8.150;2024-01-25T00:04:00;1002.38;;;6.86;100
75089;BME280;63673;49.928;8.150;2024-01-25T00:05:02;1002.34;;;6.85;100
75089;BME280;63673;49.928;8.150;2024-01-25T00:06:04;1002.38;;;6.83;100
75089;BME280;63673;49.928;8.150;2024-01-25T00:07:07;1002.25;;;6.81;100
75089;BME280;63673;49.928;8.150;2024-01-25T00:08:07;1002.28;;;6.79;100
75089;BME280;63673;49.928;8.150;2024-01-25T00:09:09;1002.27;;;6.78;100
75089;BME280;63673;49.928;8.150;2024-01-25T00:10:10;1002.23;;;6.76;100
75089;BME280;63673;49.928;8.150;2024-01-25T00:11:12;1002.37;;;6.74;100
75089;BME280;63673;49.928;8.150;2024-01-25T00:12:14;1002.35;;;6.73;100
75089;BME280;63673;49.928;8.150;2024-01-25T00:13:15;1002.36;;;6.72;100
75089;BME280;63673;49.928;8.150;2024-01-25T00:14:17;1002.32;;;6.7;100
75089;BME280;63673;49.928;8.150;2024-01-25T00:15:19;1002.33;;;6.69;100
75089;BME280;63673;49.928;8.150;2024-01-25T00:16:21;1002.33;;;6.66;100
75089;BME280;63673;49.928;8.150;2024-01-25T00:17:22;1002.3;;;6.65;100
75089;BME280;63673;49.928;8.150;2024-01-25T00:18:24;1002.29;;;6.64;100
75089;BME280;63673;49.928;8.150;2024-01-25T00:19:26;1002.24;;;6.63;100
75089;BME280;63673;49.928;8.150;2024-01-25T00:20:27;1002.26;;;6.63;100
75089;BME280;63673;49.928;8.150;2024-01-25T00:21:29;1002.24;;;6.63;100
75089;BME280;63673;49.928;8.150;2024-01-25T00:22:31;1002.24;;;6.63;100
75089;BME280;63673;49.928;8.150;2024-01-25T00:23:33;1002.28;;;6.63;100
75089;BME280;63673;49.928;8.150;2024-01-25T00:24:34;1002.31;;;6.62;100
75089;BME280;63673;49.928;8.150;2024-01-25T00:25:36;1002.24;;;6.61;100
75089;BME280;63673;49.928;8.150;2024-01-25T00:26:38;1002.29;;;6.59;100
75089;BME280;63673;49.928;8.150;2024-01-25T00:27:39;1002.3;;;6.58;100
75089;BME280;63673;49.928;8.150;2024-01-25T00:28:41;1002.27;;;6.59;100
75089;BME280;63673;49.928;8.150;2024-01-25T00:29:43;1002.27;;;6.59;100
75089;BME280;63673;49.928;8.150;2024-01-25T00:30:45;1002.25;;;6.58;100
75089;BME280;63673;49.928;8.150;2024-01-25T00:31:47;1002.28;;;6.57;100
75089;BME280;63673;49.928;8.150;2024-01-25T00:32:48;1002.24;;;6.58;100
75089;BME280;63673;49.928;8.150;2024-01-25T00:33:50;1002.19;;;6.59;100
75089;BME280;63673;49.928;8.150;2024-01-25T00:34:52;1002.21;;;6.58;100
75089;BME280;63673;49.928;8.150;2024-01-25T00:35:55;1002.19;;;6.58;100
75089;BME280;63673;49.928;8.150;2024-01-25T00:36:55;1002.2;;;6.58;100
75089;BME280;63673;49.928;8.150;2024-01-25T00:37:57;1002.19;;;6.58;100
75089;BME280;63673;49.928;8.150;2024-01-25T00:38:59;1002.17;;;6.58;100
75089;BME280;63673;49.928;8.150;2024-01-25T00:40:00;1002.23;;;6.58;100
75089;BME280;63673;49.928;8.150;2024-01-25T00:41:02;1002.26;;;6.58;100
75089;BME280;63673;49.928;8.150;2024-01-25T00:42:04;1002.25;;;6.58;100
75089;BME280;63673;49.928;8.150;2024-01-25T00:43:06;1002.25;;;6.57;100
75089;BME280;63673;49.928;8.150;2024-01-25T00:44:08;1002.29;;;6.57;100
75089;BME280;63673;49.928;8.150;2024-01-25T00:45:09;1002.27;;;6.56;100
75089;BME280;63673;49.928;8.150;2024-01-25T00:46:11;1002.28;;;6.55;100
75089;BME280;63673;49.928;8.150;2024-01-25T00:47:13;1002.19;;;6.56;100
75089;BME280;63673;49.928;8.150;2024-01-25T00:48:14;1002.2;;;6.54;100
75089;BME280;63673;49.928;8.150;2024-01-25T00:49:16;1002.23;;;6.53;100
75089;BME280;63673;49.928;8.150;2024-01-25T00:50:18;1002.23;;;6.53;100
75089;BME280;63673;49.928;8.150;2024-01-25T00:51:20;1002.27;;;6.53;100
75089;BME280;63673;49.928;8.150;2024-01-25T00:52:21;1002.31;;;6.52;100
75089;BME280;63673;49.928;8.150;2024-01-25T00:53:23;1002.25;;;6.5;100
75089;BME280;63673;49.928;8.150;2024-01-25T00:54:25;1002.32;;;6.5;100
75089;BME280;63673;49.928;8.150;2024-01-25T00:55:26;1002.32;;;6.48;100
75089;BME280;63673;49.928;8.150;2024-01-25T00:56:28;1002.3;;;6.49;100
75089;BME280;63673;49.928;8.150;2024-01-25T00:57:30;1002.3;;;6.48;100
75089;BME280;63673;49.928;8.150;2024-01-25T00:58:32;1002.3;;;6.48;100
75089;BME280;63673;49.928;8.150;2024-01-25T00:59:33;1002.3;;;6.48;100
75089;BME280;63673;49.928;8.150;2024-01-25T01:00:35;1002.28;;;6.47;100
75089;BME280;63673;49.928;8.150;2024-01-25T01:01:37;1002.28;;;6.47;100
75089;BME280;63673;49.928;8.150;2024-01-25T01:02:39;1002.26;;;6.46;100
75089;BME280;63673;49.928;8.150;2024-01-25T01:03:40;1002.32;;;6.47;100
75089;BME280;63673;49.928;8.150;2024-01-25T01:04:42;1002.33;;;6.47;100
75089;BME280;63673;49.928;8.150;2024-01-25T01:05:44;1002.29;;;6.47;100
75089;BME280;63673;49.928;8.150;2024-01-25T01:06:45;1002.26;;;6.47;100
75089;BME280;63673;49.928;8.150;2024-01-25T01:07:47;1002.31;;;6.47;100
75089;BME280;63673;49.928;8.150;2024-01-25T01:08:49;1002.33;;;6.47;100
75089;BME280;63673;49.928;8.150;2024-01-25T01:09:51;1002.34;;;6.47;100
75089;BME280;63673;49.928;8.150;2024-01-25T01:10:52;1002.35;;;6.46;100
75089;BME280;63673;49.928;8.150;2024-01-25T01:11:54;1002.36;;;6.47;100
75089;BME280;63673;49.928;8.150;2024-01-25T01:12:56;1002.4;;;6.45;100
75089;BME280;63673;49.928;8.150;2024-01-25T01:13:57;1002.31;;;6.45;100
75089;BME280;63673;49.928;8.150;2024-01-25T01:14:59;1002.35;;;6.45;100
75089;BME280;63673;49.928;8.150;2024-01-25T01:16:01;1002.33;;;6.44;100
75089;BME280;63673;49.928;8.150;2024-01-25T01:17:03;1002.32;;;6.43;100
75089;BME280;63673;49.928;8.150;2024-01-25T01:18:04;1002.35;;;6.42;100
75089;BME280;63673;49.928;8.150;2024-01-25T01:19:06;1002.35;;;6.4;100
75089;BME280;63673;49.928;8.150;2024-01-25T01:20:08;1002.35;;;6.39;100
75089;BME280;63673;49.928;8.150;2024-01-25T01:21:10;1002.42;;;6.38;100
75089;BME280;63673;49.928;8.150;2024-01-25T01:22:11;1002.39;;;6.37;100
75089;BME280;63673;49.928;8.150;2024-01-25T01:23:13;1002.41;;;6.36;100
75089;BME280;63673;49.928;8.150;2024-01-25T01:24:15;1002.39;;;6.34;100
75089;BME280;63673;49.928;8.150;2024-01-25T01:25:17;1002.41;;;6.33;100
75089;BME280;63673;49.928;8.150;2024-01-25T01:26:18;1002.44;;;6.33;100
75089;BME280;63673;49.928;8.150;2024-01-25T01:27:20;1002.48;;;6.32;100
75089;BME280;63673;49.928;8.150;2024-01-25T01:28:22;1002.48;;;6.31;100
75089;BME280;63673;49.928;8.150;2024-01-25T01:29:23;1002.47;;;6.31;100
75089;BME280;63673;49.928;8.150;2024-01-25T01:30:25;1002.43;;;6.3;100
75089;BME280;63673;49.928;8.150;2024-01-25T01:31:27;1002.46;;;6.29;100
75089;BME280;63673;49.928;8.150;2024-01-25T01:32:29;1002.45;;;6.28;100
75089;BME280;63673;49.928;8.150;2024-01-25T01:33:30;1002.41;;;6.28;100
75089;BME280;63673;49.928;8.150;2024-01-25T01:34:32;1002.4;;;6.26;100
75089;BME280;63673;49.928;8.150;2024-01-25T01:35:34;1002.4;;;6.25;100
75089;BME280;63673;49.928;8.150;2024-01-25T01:36:36;1002.4;;;6.23;100
75089;BME280;63673;49.928;8.150;2024-01-25T01:37:39;1002.45;;;6.2;100
75089;BME280;63673;49.928;8.150;2024-01-25T01:38:39;1002.47;;;6.19;100
75089;BME280;63673;49.928;8.150;2024-01-25T01:39:41;1002.48;;;6.18;100
75089;BME280;63673;49.928;8.150;2024-01-25T01:40:44;1002.48;;;6.16;100
75089;BME280;63673;49.928;8.150;2024-01-25T01:41:46;1002.49;;;6.16;100
75089;BME280;63673;49.928;8.150;2024-01-25T01:42:46;1002.45;;;6.15;100
75089;BME280;63673;49.928;8.150;2024-01-25T01:43:51;1002.56;;;6.16;100
75089;BME280;63673;49.928;8.150;2024-01-25T01:44:50;1002.6;;;6.15;100
75089;BME280;63673;49.928;8.150;2024-01-25T01:45:51;1002.61;;;6.16;100
75089;BME280;63673;49.928;8.150;2024-01-25T01:46:53;1002.59;;;6.16;100
75089;BME280;63673;49.928;8.150;2024-01-25T01:47:55;1002.57;;;6.16;100
75089;BME280;63673;49.928;8.150;2024-01-25T01:48:56;1002.55;;;6.15;100
75089;BME280;63673;49.928;8.150;2024-01-25T01:49:58;1002.53;;;6.16;100
75089;BME280;63673;49.928;8.150;2024-01-25T01:51:00;1002.55;;;6.14;100
75089;BME280;63673;49.928;8.150;2024-01-25T01:52:02;1002.58;;;6.13;100
75089;BME280;63673;49.928;8.150;2024-01-25T01:53:03;1002.59;;;6.12;100
75089;BME280;63673;49.928;8.150;2024-01-25T01:54:06;1002.55;;;6.11;100
75089;BME280;63673;49.928;8.150;2024-01-25T01:55:07;1002.66;;;6.1;100
75089;BME280;63673;49.928;8.150;2024-01-25T01:56:09;1002.7;;;6.08;100
75089;BME280;63673;49.928;8.150;2024-01-25T01:57:10;1002.69;;;6.06;100
75089;BME280;63673;49.928;8.150;2024-01-25T01:58:12;1002.67;;;6.03;100
75089;BME280;63673;49.928;8.150;2024-01-25T01:59:14;1002.59;;;6.02;100
75089;BME280;63673;49.928;8.150;2024-01-25T02:00:16;1002.58;;;6.01;100
75089;BME280;63673;49.928;8.150;2024-01-25T02:01:17;1002.55;;;5.99;100
75089;BME280;63673;49.928;8.150;2024-01-25T02:02:19;1002.51;;;5.98;100
75089;BME280;63673;49.928;8.150;2024-01-25T02:03:21;1002.56;;;5.99;100
75089;BME280;63673;49.928;8.150;2024-01-25T02:04:22;1002.61;;;5.97;100
75089;BME280;63673;49.928;8.150;2024-01-25T02:05:24;1002.58;;;5.97;100
75089;BME280;63673;49.928;8.150;2024-01-25T02:06:26;1002.62;;;5.97;100
75089;BME280;63673;49.928;8.150;2024-01-25T02:07:28;1002.57;;;5.98;100
75089;BME280;63673;49.928;8.150;2024-01-25T02:08:29;1002.65;;;5.99;100
75089;BME280;63673;49.928;8.150;2024-01-25T02:09:31;1002.67;;;5.99;100
75089;BME280;63673;49.928;8.150;2024-01-25T02:10:33;1002.64;;;5.99;100
75089;BME280;63673;49.928;8.150;2024-01-25T02:11:35;1002.68;;;5.99;100
75089;BME280;63673;49.928;8.150;2024-01-25T02:12:36;1002.67;;;6;100
75089;BME280;63673;49.928;8.150;2024-01-25T02:13:38;1002.7;;;5.99;100
75089;BME280;63673;49.928;8.150;2024-01-25T02:14:40;1002.68;;;5.99;100
75089;BME280;63673;49.928;8.150;2024-01-25T02:19:01;1002.75;;;5.98;100
75089;BME280;63673;49.928;8.150;2024-01-25T02:20:05;1002.66;;;5.98;100
75089;BME280;63673;49.928;8.150;2024-01-25T02:21:37;1002.65;;;5.98;100
75089;BME280;63673;49.928;8.150;2024-01-25T02:24:15;1002.58;;;5.97;100
75089;BME280;63673;49.928;8.150;2024-01-25T02:25:17;1002.61;;;5.96;100
75089;BME280;63673;49.928;8.150;2024-01-25T02:26:19;1002.57;;;5.95;100
75089;BME280;63673;49.928;8.150;2024-01-25T02:27:21;1002.56;;;5.95;100
75089;BME280;63673;49.928;8.150;2024-01-25T02:28:22;1002.57;;;5.94;100
75089;BME280;63673;49.928;8.150;2024-01-25T02:29:24;1002.55;;;5.94;100
75089;BME280;63673;49.928;8.150;2024-01-25T02:30:26;1002.59;;;5.93;100
75089;BME280;63673;49.928;8.150;2024-01-25T02:31:28;1002.6;;;5.92;100
75089;BME280;63673;49.928;8.150;2024-01-25T02:32:29;1002.69;;;5.91;100
75089;BME280;63673;49.928;8.150;2024-01-25T02:33:31;1002.66;;;5.9;100
75089;BME280;63673;49.928;8.150;2024-01-25T02:34:33;1002.64;;;5.9;100
75089;BME280;63673;49.928;8.150;2024-01-25T02:35:34;1002.67;;;5.91;100
75089;BME280;63673;49.928;8.150;2024-01-25T02:36:36;1002.67;;;5.91;100
75089;BME280;63673;49.928;8.150;2024-01-25T02:37:38;1002.74;;;5.92;100
75089;BME280;63673;49.928;8.150;2024-01-25T02:38:40;1002.77;;;5.93;100
75089;BME280;63673;49.928;8.150;2024-01-25T02:39:43;1002.7;;;5.95;100
75089;BME280;63673;49.928;8.150;2024-01-25T02:40:43;1002.76;;;5.96;100
75089;BME280;63673;49.928;8.150;2024-01-25T02:41:45;1002.65;;;5.97;100
75089;BME280;63673;49.928;8.150;2024-01-25T02:42:46;1002.64;;;5.99;100
75089;BME280;63673;49.928;8.150;2024-01-25T02:43:48;1002.62;;;6;100
75089;BME280;63673;49.928;8.150;2024-01-25T02:44:50;1002.59;;;6.01;100
75089;BME280;63673;49.928;8.150;2024-01-25T02:45:52;1002.63;;;6.02;100
75089;BME280;63673;49.928;8.150;2024-01-25T02:46:53;1002.69;;;6.04;100
75089;BME280;63673;49.928;8.150;2024-01-25T02:47:55;1002.71;;;6.05;100
75089;BME280;63673;49.928;8.150;2024-01-25T02:48:57;1002.73;;;6.06;100
75089;BME280;63673;49.928;8.150;2024-01-25T02:49:59;1002.71;;;6.08;100
75089;BME280;63673;49.928;8.150;2024-01-25T02:51:00;1002.68;;;6.09;100
75089;BME280;63673;49.928;8.150;2024-01-25T02:52:02;1002.71;;;6.11;100
75089;BME280;63673;49.928;8.150;2024-01-25T02:53:04;1002.63;;;6.13;100
75089;BME280;63673;49.928;8.150;2024-01-25T02:54:05;1002.71;;;6.15;100
75089;BME280;63673;49.928;8.150;2024-01-25T02:55:07;1002.75;;;6.15;100
75089;BME280;63673;49.928;8.150;2024-01-25T02:56:09;1002.72;;;6.18;100
75089;BME280;63673;49.928;8.150;2024-01-25T02:57:11;1002.73;;;6.2;100
75089;BME280;63673;49.928;8.150;2024-01-25T02:58:12;1002.81;;;6.22;100
75089;BME280;63673;49.928;8.150;2024-01-25T02:59:14;1002.74;;;6.24;100
75089;BME280;63673;49.928;8.150;2024-01-25T03:00:16;1002.78;;;6.27;100
75089;BME280;63673;49.928;8.150;2024-01-25T03:01:18;1002.76;;;6.28;100
75089;BME280;63673;49.928;8.150;2024-01-25T03:02:19;1002.77;;;6.3;100
75089;BME280;63673;49.928;8.150;2024-01-25T03:03:21;1002.75;;;6.31;100
75089;BME280;63673;49.928;8.150;2024-01-25T03:04:23;1002.74;;;6.34;100
75089;BME280;63673;49.928;8.150;2024-01-25T03:05:24;1002.76;;;6.35;100
75089;BME280;63673;49.928;8.150;2024-01-25T03:06:26;1002.74;;;6.37;100
75089;BME280;63673;49.928;8.150;2024-01-25T03:07:28;1002.78;;;6.38;100
75089;BME280;63673;49.928;8.150;2024-01-25T03:08:30;1002.71;;;6.39;100
75089;BME280;63673;49.928;8.150;2024-01-25T03:09:31;1002.69;;;6.41;100
75089;BME280;63673;49.928;8.150;2024-01-25T03:10:33;1002.72;;;6.43;100
75089;BME280;63673;49.928;8.150;2024-01-25T03:11:35;1002.72;;;6.44;100
75089;BME280;63673;49.928;8.150;2024-01-25T03:12:36;1002.7;;;6.44;100
75089;BME280;63673;49.928;8.150;2024-01-25T03:13:38;1002.71;;;6.45;100
75089;BME280;63673;49.928;8.150;2024-01-25T03:14:40;1002.67;;;6.45;100
75089;BME280;63673;49.928;8.150;2024-01-25T03:15:42;1002.65;;;6.46;100
75089;BME280;63673;49.928;8.150;2024-01-25T03:16:43;1002.72;;;6.46;100
75089;BME280;63673;49.928;8.150;2024-01-25T03:17:45;1002.67;;;6.47;100
75089;BME280;63673;49.928;8.150;2024-01-25T03:18:47;1002.65;;;6.48;100
75089;BME280;63673;49.928;8.150;2024-01-25T03:19:49;1002.65;;;6.48;100
75089;BME280;63673;49.928;8.150;2024-01-25T03:20:50;1002.67;;;6.48;100
75089;BME280;63673;49.928;8.150;2024-01-25T03:21:52;1002.66;;;6.49;100
75089;BME280;63673;49.928;8.150;2024-01-25T03:22:54;1002.64;;;6.49;100
75089;BME280;63673;49.928;8.150;2024-01-25T03:23:56;1002.65;;;6.48;100
75089;BME280;63673;49.928;8.150;2024-01-25T03:24:57;1002.65;;;6.49;100
75089;BME280;63673;49.928;8.150;2024-01-25T03:26:01;1002.66;;;6.48;100
75089;BME280;63673;49.928;8.150;2024-01-25T03:27:01;1002.61;;;6.46;100
75089;BME280;63673;49.928;8.150;2024-01-25T03:28:03;1002.61;;;6.46;100
75089;BME280;63673;49.928;8.150;2024-01-25T03:29:04;1002.63;;;6.43;100
75089;BME280;63673;49.928;8.150;2024-01-25T03:30:06;1002.64;;;6.41;100
75089;BME280;63673;49.928;8.150;2024-01-25T03:31:08;1002.62;;;6.4;100
75089;BME280;63673;49.928;8.150;2024-01-25T03:32:09;1002.59;;;6.37;100
75089;BME280;63673;49.928;8.150;2024-01-25T03:33:11;1002.62;;;6.35;100
75089;BME280;63673;49.928;8.150;2024-01-25T03:34:13;1002.68;;;6.34;100
75089;BME280;63673;49.928;8.150;2024-01-25T03:35:15;1002.7;;;6.31;100
75089;BME280;63673;49.928;8.150;2024-01-25T03:36:16;1002.72;;;6.3;100
75089;BME280;63673;49.928;8.150;2024-01-25T03:37:18;1002.78;;;6.29;100
75089;BME280;63673;49.928;8.150;2024-01-25T03:38:20;1002.79;;;6.27;100
75089;BME280;63673;49.928;8.150;2024-01-25T03:39:22;1002.77;;;6.25;100
75089;BME280;63673;49.928;8.150;2024-01-25T03:40:23;1002.76;;;6.25;100
75089;BME280;63673;49.928;8.150;2024-01-25T03:41:26;1002.79;;;6.24;100
75089;BME280;63673;49.928;8.150;2024-01-25T03:42:27;1002.8;;;6.23;100
75089;BME280;63673;49.928;8.150;2024-01-25T03:43:28;1002.82;;;6.23;100
75089;BME280;63673;49.928;8.150;2024-01-25T03:44:30;1002.84;;;6.22;100
75089;BME280;63673;49.928;8.150;2024-01-25T03:45:32;1002.88;;;6.21;100
75089;BME280;63673;49.928;8.150;2024-01-25T03:46:34;1002.88;;;6.23;100
75089;BME280;63673;49.928;8.150;2024-01-25T03:47:35;1002.93;;;6.23;100
75089;BME280;63673;49.928;8.150;2024-01-25T03:48:37;1002.92;;;6.22;100
75089;BME280;63673;49.928;8.150;2024-01-25T03:49:39;1002.96;;;6.23;100
75089;BME280;63673;49.928;8.150;2024-01-25T03:50:41;1002.98;;;6.24;100
75089;BME280;63673;49.928;8.150;2024-01-25T03:51:42;1003.01;;;6.26;100
75089;BME280;63673;49.928;8.150;2024-01-25T03:52:44;1003.03;;;6.26;100
75089;BME280;63673;49.928;8.150;2024-01-25T03:53:46;1002.99;;;6.27;100
75089;BME280;63673;49.928;8.150;2024-01-25T03:54:48;1002.94;;;6.26;100
75089;BME280;63673;49.928;8.150;2024-01-25T03:55:49;1002.96;;;6.28;100
75089;BME280;63673;49.928;8.150;2024-01-25T03:56:51;1002.98;;;6.28;100
75089;BME280;63673;49.928;8.150;2024-01-25T03:57:53;1003.04;;;6.29;100
75089;BME280;63673;49.928;8.150;2024-01-25T03:58:55;1003.05;;;6.28;100
75089;BME280;63673;49.928;8.150;2024-01-25T03:59:56;1003.07;;;6.29;100
75089;BME280;63673;49.928;8.150;2024-01-25T04:00:58;1003.07;;;6.3;100
75089;BME280;63673;49.928;8.150;2024-01-25T04:02:00;1003.08;;;6.3;100
75089;BME280;63673;49.928;8.150;2024-01-25T04:03:02;1003.06;;;6.3;100
75089;BME280;63673;49.928;8.150;2024-01-25T04:04:03;1003.12;;;6.3;100
75089;BME280;63673;49.928;8.150;2024-01-25T04:05:05;1003.13;;;6.3;100
75089;BME280;63673;49.928;8.150;2024-01-25T04:06:07;1003.16;;;6.3;100
75089;BME280;63673;49.928;8.150;2024-01-25T04:07:08;1003.13;;;6.3;100
75089;BME280;63673;49.928;8.150;2024-01-25T04:08:10;1003.17;;;6.29;100
75089;BME280;63673;49.928;8.150;2024-01-25T04:09:12;1003.19;;;6.29;100
75089;BME280;63673;49.928;8.150;2024-01-25T04:10:14;1003.21;;;6.29;100
75089;BME280;63673;49.928;8.150;2024-01-25T04:11:15;1003.27;;;6.29;100
75089;BME280;63673;49.928;8.150;2024-01-25T04:12:17;1003.23;;;6.28;100
75089;BME280;63673;49.928;8.150;2024-01-25T04:13:19;1003.24;;;6.29;100
75089;BME280;63673;49.928;8.150;2024-01-25T04:14:20;1003.28;;;6.28;100
75089;BME280;63673;49.928;8.150;2024-01-25T04:15:22;1003.28;;;6.28;100
75089;BME280;63673;49.928;8.150;2024-01-25T04:16:24;1003.24;;;6.28;100
75089;BME280;63673;49.928;8.150;2024-01-25T04:17:26;1003.24;;;6.27;100
75089;BME280;63673;49.928;8.150;2024-01-25T04:18:27;1003.22;;;6.27;100
75089;BME280;63673;49.928;8.150;2024-01-25T04:19:29;1003.22;;;6.25;100
75089;BME280;63673;49.928;8.150;2024-01-25T04:20:31;1003.22;;;6.24;100
75089;BME280;63673;49.928;8.150;2024-01-25T04:21:33;1003.25;;;6.22;100
75089;BME280;63673;49.928;8.150;2024-01-25T04:22:34;1003.23;;;6.2;100
75089;BME280;63673;49.928;8.150;2024-01-25T04:23:36;1003.24;;;6.18;100
75089;BME280;63673;49.928;8.150;2024-01-25T04:24:38;1003.2;;;6.17;100
75089;BME280;63673;49.928;8.150;2024-01-25T04:25:40;1003.21;;;6.14;100
75089;BME280;63673;49.928;8.150;2024-01-25T04:26:41;1003.25;;;6.13;100
75089;BME280;63673;49.928;8.150;2024-01-25T04:27:43;1003.23;;;6.11;100
75089;BME280;63673;49.928;8.150;2024-01-25T04:28:45;1003.25;;;6.09;100
75089;BME280;63673;49.928;8.150;2024-01-25T04:29:46;1003.27;;;6.08;100
75089;BME280;63673;49.928;8.150;2024-01-25T04:30:48;1003.27;;;6.06;100
75089;BME280;63673;49.928;8.150;2024-01-25T04:31:50;1003.29;;;6.04;100
75089;BME280;63673;49.928;8.150;2024-01-25T04:32:52;1003.28;;;6.02;100
75089;BME280;63673;49.928;8.150;2024-01-25T04:33:53;1003.34;;;6;100
75089;BME280;63673;49.928;8.150;2024-01-25T04:34:55;1003.39;;;5.98;100
75089;BME280;63673;49.928;8.150;2024-01-25T04:35:57;1003.39;;;5.96;100
75089;BME280;63673;49.928;8.150;2024-01-25T04:36:59;1003.32;;;5.95;100
75089;BME280;63673;49.928;8.150;2024-01-25T04:38:00;1003.39;;;5.93;100
75089;BME280;63673;49.928;8.150;2024-01-25T04:39:02;1003.42;;;5.9;100
75089;BME280;63673;49.928;8.150;2024-01-25T04:40:04;1003.39;;;5.89;100
75089;BME280;63673;49.928;8.150;2024-01-25T04:41:06;1003.35;;;5.88;100
75089;BME280;63673;49.928;8.150;2024-01-25T04:42:07;1003.33;;;5.87;100
75089;BME280;63673;49.928;8.150;2024-01-25T04:43:09;1003.33;;;5.85;100
75089;BME280;63673;49.928;8.150;2024-01-25T04:44:11;1003.29;;;5.83;100
75089;BME280;63673;49.928;8.150;2024-01-25T04:45:13;1003.29;;;5.82;100
75089;BME280;63673;49.928;8.150;2024-01-25T04:46:14;1003.29;;;5.81;100
75089;BME280;63673;49.928;8.150;2024-01-25T04:47:16;1003.3;;;5.79;100
75089;BME280;63673;49.928;8.150;2024-01-25T04:48:18;1003.32;;;5.78;100
75089;BME280;63673;49.928;8.150;2024-01-25T04:49:19;1003.35;;;5.77;100
75089;BME280;63673;49.928;8.150;2024-01-25T04:50:21;1003.34;;;5.76;100
75089;BME280;63673;49.928;8.150;2024-01-25T04:51:23;1003.33;;;5.76;100
75089;BME280;63673;49.928;8.150;2024-01-25T04:52:25;1003.32;;;5.76;100
75089;BME280;63673;49.928;8.150;2024-01-25T04:53:26;1003.34;;;5.75;100
75089;BME280;63673;49.928;8.150;2024-01-25T04:54:28;1003.33;;;5.74;100
75089;BME280;63673;49.928;8.150;2024-01-25T04:55:30;1003.39;;;5.72;100
75089;BME280;63673;49.928;8.150;2024-01-25T04:56:32;1003.39;;;5.7;100
75089;BME280;63673;49.928;8.150;2024-01-25T04:57:33;1003.43;;;5.69;100
75089;BME280;63673;49.928;8.150;2024-01-25T04:58:35;1003.41;;;5.68;100
75089;BME280;63673;49.928;8.150;2024-01-25T04:59:37;1003.4;;;5.67;100
75089;BME280;63673;49.928;8.150;2024-01-25T05:00:38;1003.36;;;5.66;100
75089;BME280;63673;49.928;8.150;2024-01-25T05:01:40;1003.33;;;5.65;100
75089;BME280;63673;49.928;8.150;2024-01-25T05:02:42;1003.38;;;5.64;100
75089;BME280;63673;49.928;8.150;2024-01-25T05:03:44;1003.41;;;5.63;100
75089;BME280;63673;49.928;8.150;2024-01-25T05:04:45;1003.5;;;5.62;100
75089;BME280;63673;49.928;8.150;2024-01-25T05:05:47;1003.54;;;5.6;100
75089;BME280;63673;49.928;8.150;2024-01-25T05:06:49;1003.53;;;5.59;100
75089;BME280;63673;49.928;8.150;2024-01-25T05:07:51;1003.58;;;5.58;100
75089;BME280;63673;49.928;8.150;2024-01-25T05:08:52;1003.52;;;5.57;100
75089;BME280;63673;49.928;8.150;2024-01-25T05:09:54;1003.55;;;5.56;100
75089;BME280;63673;49.928;8.150;2024-01-25T05:10:56;1003.62;;;5.56;100
75089;BME280;63673;49.928;8.150;2024-01-25T05:11:58;1003.58;;;5.55;100
75089;BME280;63673;49.928;8.150;2024-01-25T05:12:59;1003.57;;;5.56;100
75089;BME280;63673;49.928;8.150;2024-01-25T05:14:01;1003.65;;;5.56;100
75089;BME280;63673;49.928;8.150;2024-01-25T05:15:03;1003.66;;;5.56;100
75089;BME280;63673;49.928;8.150;2024-01-25T05:16:05;1003.65;;;5.56;100
75089;BME280;63673;49.928;8.150;2024-01-25T05:17:06;1003.73;;;5.57;100
75089;BME280;63673;49.928;8.150;2024-01-25T05:18:08;1003.77;;;5.56;100
75089;BME280;63673;49.928;8.150;2024-01-25T05:19:10;1003.75;;;5.57;100
75089;BME280;63673;49.928;8.150;2024-01-25T05:20:12;1003.88;;;5.57;100
75089;BME280;63673;49.928;8.150;2024-01-25T05:21:13;1003.9;;;5.56;100
75089;BME280;63673;49.928;8.150;2024-01-25T05:22:15;1003.91;;;5.57;100
75089;BME280;63673;49.928;8.150;2024-01-25T05:23:17;1003.91;;;5.58;100
75089;BME280;63673;49.928;8.150;2024-01-25T05:24:18;1003.95;;;5.57;100
75089;BME280;63673;49.928;8.150;2024-01-25T05:25:20;1003.97;;;5.58;100
75089;BME280;63673;49.928;8.150;2024-01-25T05:26:22;1004.01;;;5.59;100
75089;BME280;63673;49.928;8.150;2024-01-25T05:27:25;1003.98;;;5.6;100
75089;BME280;63673;49.928;8.150;2024-01-25T05:28:25;1004.02;;;5.61;100
75089;BME280;63673;49.928;8.150;2024-01-25T05:29:27;1003.96;;;5.62;100
75089;BME280;63673;49.928;8.150;2024-01-25T05:30:29;1003.97;;;5.63;100
75089;BME280;63673;49.928;8.150;2024-01-25T05:31:30;1003.98;;;5.65;100
75089;BME280;63673;49.928;8.150;2024-01-25T05:32:32;1004.02;;;5.66;100
75089;BME280;63673;49.928;8.150;2024-01-25T05:33:34;1004.03;;;5.68;100
75089;BME280;63673;49.928;8.150;2024-01-25T05:34:36;1004.02;;;5.68;100
75089;BME280;63673;49.928;8.150;2024-01-25T05:35:37;1004.04;;;5.7;100
75089;BME280;63673;49.928;8.150;2024-01-25T05:36:39;1004.07;;;5.72;100
75089;BME280;63673;49.928;8.150;2024-01-25T05:37:41;1004.04;;;5.71;100
75089;BME280;63673;49.928;8.150;2024-01-25T05:38:43;1004.01;;;5.73;100
75089;BME280;63673;49.928;8.150;2024-01-25T05:39:44;1004.01;;;5.74;100
75089;BME280;63673;49.928;8.150;2024-01-25T05:40:46;1004;;;5.74;100
75089;BME280;63673;49.928;8.150;2024-01-25T05:41:48;1004.06;;;5.75;100
75089;BME280;63673;49.928;8.150;2024-01-25T05:42:50;1004.04;;;5.75;100
75089;BME280;63673;49.928;8.150;2024-01-25T05:43:51;1004.11;;;5.75;100
75089;BME280;63673;49.928;8.150;2024-01-25T05:44:53;1004.09;;;5.75;100
75089;BME280;63673;49.928;8.150;2024-01-25T05:45:55;1004.03;;;5.76;100
75089;BME280;63673;49.928;8.150;2024-01-25T05:46:57;1004.09;;;5.76;100
75089;BME280;63673;49.928;8.150;2024-01-25T05:47:58;1004.08;;;5.76;100
75089;BME280;63673;49.928;8.150;2024-01-25T05:49:00;1004.12;;;5.77;100
75089;BME280;63673;49.928;8.150;2024-01-25T05:50:02;1004.11;;;5.77;100
75089;BME280;63673;49.928;8.150;2024-01-25T05:51:03;1004.13;;;5.77;100
75089;BME280;63673;49.928;8.150;2024-01-25T05:52:05;1004.14;;;5.76;100